Time;durP1;ratioP1;P1;durP2;ratioP2;P2;SDS_P1;SDS_P2;PMS_P1;PMS_P2;Temp;Humidity;BMP_temperature;BMP_pressure;BME280_temperature;BME280_humidity;BME280_pressure;Samples;Min_cycle;Max_cycle;Signal;HPM_P1;HPM_P2
2022/07/26 00:00:01;;;;;;;17.08;11.10;;;;;;;25.84;45.81;94987.03;5063561;28;20082;-86
2022/07/26 00:02:27;;;;;;;16.27;11.77;;;;;;;26.11;45.87;95029.19;5081646;28;20044;-86
2022/07/26 00:04:52;;;;;;;15.52;10.90;;;;;;;25.95;46.06;95017.78;5062791;28;20032;-86
2022/07/26 00:07:18;;;;;;;15.00;12.45;;;;;;;25.97;45.39;95001.91;5063914;28;20047;-86
2022/07/26 00:09:43;;;;;;;17.90;12.55;;;;;;;25.54;45.96;94956.47;5063618;28;20108;-86
2022/07/26 00:12:09;;;;;;;17.75;13.27;;;;;;;25.28;46.33;94944.59;5062836;28;20028;-86
2022/07/26 00:14:35;;;;;;;15.82;12.75;;;;;;;24.68;46.41;94848.97;5063977;28;20043;-86
2022/07/26 00:17:01;;;;;;;15.10;12.02;;;;;;;25.98;46.29;95046.16;5064588;28;20047;-87
2022/07/26 00:19:27;;;;;;;14.88;11.27;;;;;;;25.36;46.67;94970.66;5082959;28;20051;-86
2022/07/26 00:22:32;;;;;;;14.50;11.60;;;;;;;25.76;47.03;95034.31;5063270;28;20036;-86
2022/07/26 00:24:38;;;;;;;15.93;12.75;;;;;;;23.65;46.95;94708.78;5081711;28;20040;-86
2022/07/26 00:27:04;;;;;;;18.13;12.23;;;;;;;24.46;47.09;94828.22;5063637;28;20074;-86
2022/07/26 00:29:30;;;;;;;14.77;11.85;;;;;;;25.85;47.10;95034.78;5063580;28;20062;-87
2022/07/26 00:31:56;;;;;;;13.82;12.18;;;;;;;25.58;46.61;94984.44;5063798;28;20139;-86
2022/07/26 00:34:21;;;;;;;19.27;11.55;;;;;;;25.44;47.10;94989.72;5082462;28;20048;-86
2022/07/26 00:36:46;;;;;;;19.63;11.95;;;;;;;25.36;46.83;94945.44;5063071;28;20240;-86
2022/07/26 00:39:12;;;;;;;16.50;12.23;;;;;;;25.57;46.97;94983.66;5063410;28;20066;-87
2022/07/26 00:41:37;;;;;;;18.05;12.80;;;;;;;24.82;47.25;94883.59;5062742;28;20065;-86
2022/07/26 00:44:03;;;;;;;15.85;10.50;;;;;;;24.80;47.67;94883.97;5063749;28;20429;-87
2022/07/26 00:46:28;;;;;;;17.30;12.13;;;;;;;24.93;47.58;94917.09;5063265;28;20528;-86
2022/07/26 00:48:54;;;;;;;19.77;12.68;;;;;;;25.46;47.55;95009.16;5081900;28;20043;-86
2022/07/26 00:51:20;;;;;;;17.27;12.55;;;;;;;25.64;47.76;95034.56;5063775;28;20032;-86
2022/07/26 00:53:46;;;;;;;14.32;11.68;;;;;;;25.37;47.50;94993.16;5081856;28;20498;-86
2022/07/26 00:56:13;;;;;;;15.35;12.35;;;;;;;25.47;47.47;95008.00;5063085;28;20463;-86
2022/07/26 00:58:39;;;;;;;15.02;12.05;;;;;;;24.82;47.52;94914.22;5063231;28;20050;-86
2022/07/26 01:01:04;;;;;;;14.02;12.27;;;;;;;25.32;48.06;95013.28;5064047;28;20036;-86
2022/07/26 01:03:30;;;;;;;14.32;12.13;;;;;;;25.52;47.88;95032.09;5082070;28;20032;-86
2022/07/26 01:05:55;;;;;;;15.35;12.85;;;;;;;24.90;48.07;94953.06;5063928;28;20128;-86
2022/07/26 01:08:21;;;;;;;17.52;12.35;;;;;;;25.18;48.20;95004.97;5081514;28;20088;-86
2022/07/26 01:10:46;;;;;;;16.40;12.30;;;;;;;25.37;48.46;95033.88;5063301;28;20040;-86
2022/07/26 01:13:17;;;;;;;17.35;12.15;;;;;;;24.83;48.61;94951.03;5062394;28;20042;-86
2022/07/26 01:15:42;;;;;;;14.50;12.80;;;;;;;25.41;48.38;95047.47;5081263;28;20044;-86
2022/07/26 01:18:08;;;;;;;13.18;11.77;;;;;;;24.33;48.55;94886.53;5080619;28;20075;-86
2022/07/26 01:20:33;;;;;;;13.32;11.95;;;;;;;24.96;48.53;94997.72;5061918;28;20513;-86
2022/07/26 01:22:59;;;;;;;14.13;12.63;;;;;;;25.14;49.12;95027.78;5061850;28;20043;-87
2022/07/26 01:25:33;;;;;;;16.63;12.98;;;;;;;24.88;48.86;94969.69;5062658;28;20028;-86
2022/07/26 01:27:58;;;;;;;14.13;12.57;;;;;;;25.17;49.00;95030.56;5061385;28;20430;-86
2022/07/26 01:30:24;;;;;;;17.23;12.60;;;;;;;24.66;49.24;94977.94;5062282;28;20042;-86
2022/07/26 01:32:49;;;;;;;14.82;13.27;;;;;;;24.86;49.09;94982.88;5061740;28;20036;-87
2022/07/26 01:35:15;;;;;;;12.90;11.60;;;;;;;25.20;49.41;95035.22;5080600;28;20382;-86
2022/07/26 01:37:40;;;;;;;15.98;13.40;;;;;;;25.06;49.33;95042.41;5061919;28;20110;-86
2022/07/26 01:40:06;;;;;;;15.10;12.82;;;;;;;24.86;49.42;94999.13;5079851;28;20058;-86
2022/07/26 01:42:32;;;;;;;15.00;12.52;;;;;;;25.03;49.78;95022.22;5061760;28;20036;-86
2022/07/26 01:44:57;;;;;;;19.33;12.38;;;;;;;24.80;49.77;95003.28;5061383;28;20079;-86
2022/07/26 01:47:23;;;;;;;14.25;12.27;;;;;;;24.96;49.50;95008.56;5081218;28;20035;-86
2022/07/26 01:49:48;;;;;;;15.15;13.20;;;;;;;24.78;49.77;94994.78;5061948;28;20122;-86
2022/07/26 01:52:14;;;;;;;16.65;12.60;;;;;;;24.59;49.71;94960.44;5062107;28;20061;-86
2022/07/26 01:54:39;;;;;;;18.08;12.18;;;;;;;24.53;49.67;94953.00;5061262;28;20040;-86
2022/07/26 01:57:05;;;;;;;19.98;13.57;;;;;;;24.74;50.33;95021.03;5061752;28;20472;-86
2022/07/26 01:59:30;;;;;;;15.65;12.40;;;;;;;24.44;50.33;94966.81;5061900;28;20248;-86
2022/07/26 02:01:55;;;;;;;15.93;12.18;;;;;;;24.22;50.60;94935.94;5079096;28;20040;-86
2022/07/26 02:07:05;;;;;;;16.85;12.90;;;;;;;23.43;50.73;94846.47;5079322;28;20047;-86
2022/07/26 02:09:30;;;;;;;15.60;12.68;;;;;;;24.47;50.36;95004.03;5061077;28;20028;-86
2022/07/26 02:11:56;;;;;;;14.43;12.65;;;;;;;23.87;50.60;94929.19;5061455;28;20554;-86
2022/07/26 02:14:21;;;;;;;18.40;13.13;;;;;;;24.09;50.63;94952.72;5061233;28;20943;-86
2022/07/26 02:16:46;;;;;;;20.20;12.60;;;;;;;24.21;50.95;94988.53;5061601;28;20158;-87
2022/07/26 02:19:12;;;;;;;18.15;13.10;;;;;;;24.02;51.23;94961.53;5060720;28;20036;-86
2022/07/26 02:21:37;;;;;;;17.17;12.82;;;;;;;24.20;51.43;95002.44;5083102;28;20028;-86
2022/07/26 02:24:05;;;;;;;19.38;13.40;;;;;;;24.46;51.30;95036.91;5062696;28;20398;-86
2022/07/26 02:26:30;;;;;;;18.95;13.00;;;;;;;23.66;51.31;94916.84;5077717;28;20073;-86
2022/07/26 02:28:56;;;;;;;17.05;13.00;;;;;;;24.47;51.20;95042.00;5065833;28;20036;-86
2022/07/26 02:31:21;;;;;;;17.08;12.40;;;;;;;24.55;51.42;95043.66;5084092;28;20055;-86
2022/07/26 02:33:46;;;;;;;18.98;13.27;;;;;;;22.79;51.50;94797.88;5065335;28;20128;-87
2022/07/26 02:36:12;;;;;;;18.92;13.85;;;;;;;24.50;50.93;95026.91;5065599;28;20063;-86
2022/07/26 02:38:37;;;;;;;18.55;12.95;;;;;;;23.97;51.39;94969.16;5065044;28;20521;-86
2022/07/26 02:41:05;;;;;;;21.20;15.15;;;;;;;22.51;51.04;94749.47;5065252;28;20036;-86
2022/07/26 02:43:31;;;;;;;25.73;14.02;;;;;;;24.02;51.20;94994.03;5084265;28;20032;-86
2022/07/26 02:45:57;;;;;;;18.58;14.95;;;;;;;23.49;51.28;94905.75;5083747;28;20426;-86
2022/07/26 02:48:22;;;;;;;16.35;13.52;;;;;;;24.04;51.24;94988.22;5065184;28;20047;-86
2022/07/26 02:50:47;;;;;;;18.52;13.80;;;;;;;24.03;51.63;95008.38;5083950;28;20071;-86
2022/07/26 02:53:13;;;;;;;21.80;14.10;;;;;;;24.15;52.28;95063.13;5065646;28;20031;-86
2022/07/26 02:55:38;;;;;;;17.27;13.55;;;;;;;23.85;52.40;95016.97;5065048;28;20437;-86
2022/07/26 02:58:04;;;;;;;18.65;13.48;;;;;;;23.91;52.21;95014.75;5064922;28;20032;-86
2022/07/26 03:00:29;;;;;;;21.05;14.18;;;;;;;24.03;51.90;95025.38;5064759;28;20040;-86
2022/07/26 03:02:54;;;;;;;21.75;13.90;;;;;;;23.92;52.09;95013.59;5082652;28;20039;-86
2022/07/26 03:05:20;;;;;;;21.63;14.52;;;;;;;23.65;53.17;95030.94;5064556;28;20417;-86
2022/07/26 03:07:46;;;;;;;19.15;13.40;;;;;;;23.19;53.35;94962.41;5065023;28;20470;-86
2022/07/26 03:10:12;;;;;;;16.17;13.88;;;;;;;23.44;52.84;94980.66;5082344;28;20032;-86
2022/07/26 03:12:38;;;;;;;22.17;14.02;;;;;;;23.40;52.68;94962.78;5082941;28;20081;-86
2022/07/26 03:15:04;;;;;;;17.10;14.10;;;;;;;23.50;52.50;94985.81;5064576;28;20047;-86
2022/07/26 03:17:30;;;;;;;20.00;14.43;;;;;;;23.91;52.90;95058.06;5065072;28;20048;-86
2022/07/26 03:19:55;;;;;;;19.85;15.05;;;;;;;23.87;53.13;95059.16;5065328;28;20370;-86
2022/07/26 03:22:21;;;;;;;22.08;14.80;;;;;;;23.25;53.28;94977.22;5065563;28;20050;-86
2022/07/26 03:24:46;;;;;;;19.75;14.57;;;;;;;23.04;53.64;94954.00;5065370;28;20147;-86
2022/07/26 03:27:11;;;;;;;19.77;14.20;;;;;;;23.63;53.51;95039.41;5084051;28;20036;-86
2022/07/26 03:29:37;;;;;;;21.65;14.13;;;;;;;22.95;53.01;94917.53;5082534;28;20039;-86
2022/07/26 03:32:02;;;;;;;21.27;14.80;;;;;;;23.53;53.36;95012.94;5064271;28;20036;-86
2022/07/26 03:34:28;;;;;;;35.50;15.48;;;;;;;23.63;53.02;95011.56;5064242;28;20036;-86
2022/07/26 03:36:53;;;;;;;21.25;15.00;;;;;;;23.46;52.99;94988.41;5064546;28;20576;-86
2022/07/26 03:39:18;;;;;;;17.17;14.10;;;;;;;22.22;53.41;94811.06;5064422;28;20075;-86
2022/07/26 03:41:44;;;;;;;19.48;15.18;;;;;;;23.44;53.30;94996.09;5064875;28;20565;-87
2022/07/26 03:44:09;;;;;;;18.92;14.20;;;;;;;23.81;53.38;95054.03;5082307;28;20036;-86
2022/07/26 03:46:35;;;;;;;19.58;15.18;;;;;;;23.70;53.11;95015.16;5082435;28;20035;-87
2022/07/26 03:49:00;;;;;;;19.45;14.57;;;;;;;23.28;53.23;94962.94;5063666;28;20078;-86
2022/07/26 03:51:26;;;;;;;22.88;15.57;;;;;;;24.03;52.88;95060.59;5063441;28;20039;-86
2022/07/26 03:53:51;;;;;;;22.00;16.15;;;;;;;23.96;52.72;95046.16;5063546;28;20032;-86
2022/07/26 03:56:32;;;;;;;19.40;14.63;;;;;;;24.09;52.68;95066.50;5082268;28;20115;-86
2022/07/26 03:59:00;;;;;;;32.78;15.43;;;;;;;22.80;52.41;94872.44;5063767;28;20047;-86
2022/07/26 04:01:26;;;;;;;21.45;16.23;;;;;;;23.26;52.10;94916.53;5062931;28;20161;-86
2022/07/26 04:03:52;;;;;;;20.52;16.30;;;;;;;24.27;52.19;95085.78;5063695;28;20067;-86
2022/07/26 04:06:17;;;;;;;25.55;15.90;;;;;;;24.31;52.36;95073.09;5084757;28;20409;-85
2022/07/26 04:08:43;;;;;;;19.00;16.13;;;;;;;23.97;52.27;95034.97;5064022;28;20066;-86
2022/07/26 04:11:08;;;;;;;25.38;16.30;;;;;;;21.94;52.34;94724.09;5082251;28;20089;-85
2022/07/26 04:13:35;;;;;;;25.65;15.82;;;;;;;22.84;52.35;94874.06;5063770;28;20043;-85
2022/07/26 04:16:01;;;;;;;25.85;16.33;;;;;;;23.93;52.20;95011.69;5081554;28;20032;-87
2022/07/26 04:18:26;;;;;;;22.95;16.17;;;;;;;24.07;52.29;95039.78;5063261;28;20425;-85
2022/07/26 04:20:52;;;;;;;26.08;15.68;;;;;;;24.09;52.22;95032.06;5063937;28;20104;-85
2022/07/26 04:23:17;;;;;;;25.80;15.90;;;;;;;24.30;51.88;95036.28;5063719;28;20493;-85
2022/07/26 04:25:43;;;;;;;28.50;15.30;;;;;;;24.28;52.17;95039.34;5081959;28;20046;-85
2022/07/26 04:28:09;;;;;;;18.85;14.70;;;;;;;22.52;52.12;94756.44;5063291;28;20036;-86
2022/07/26 04:30:35;;;;;;;19.10;15.52;;;;;;;24.25;51.42;95018.41;5081465;28;20040;-85
2022/07/26 04:33:01;;;;;;;27.20;16.95;;;;;;;23.93;51.26;94987.31;5062714;28;20109;-86
2022/07/26 04:35:26;;;;;;;21.33;17.10;;;;;;;24.53;51.67;95056.78;5081306;28;20047;-85
2022/07/26 04:37:52;;;;;;;25.73;16.02;;;;;;;24.24;51.37;95008.72;5062470;28;20055;-85
2022/07/26 04:40:19;;;;;;;24.45;15.50;;;;;;;24.47;51.48;95035.78;5063689;28;20046;-85
2022/07/26 04:42:45;;;;;;;23.80;17.23;;;;;;;24.68;51.44;95063.19;5081645;28;20510;-85
2022/07/26 04:45:12;;;;;;;27.40;16.70;;;;;;;24.35;51.04;95006.94;5063541;28;20039;-86
2022/07/26 04:47:43;;;;;;;27.65;17.75;;;;;;;24.66;51.06;95043.78;5063212;28;20032;-85
2022/07/26 04:50:11;;;;;;;27.13;16.45;;;;;;;24.29;51.27;94996.78;5062707;28;20143;-85
2022/07/26 04:52:37;;;;;;;25.20;15.45;;;;;;;24.29;50.92;95000.28;5063111;28;20046;-85
2022/07/26 04:55:04;;;;;;;28.15;17.48;;;;;;;24.48;51.21;95015.66;5063148;28;20040;-85
2022/07/26 04:57:30;;;;;;;26.58;18.17;;;;;;;24.77;50.98;95047.44;5079897;28;20036;-85
2022/07/26 04:59:55;;;;;;;29.73;17.05;;;;;;;24.43;50.57;94994.28;5060168;28;20036;-85
2022/07/26 05:02:21;;;;;;;26.48;18.20;;;;;;;24.58;50.73;95012.31;5068473;28;20416;-85
2022/07/26 05:04:46;;;;;;;27.65;17.27;;;;;;;24.67;50.85;95017.47;5100647;28;20045;-86
2022/07/26 05:07:11;;;;;;;27.27;17.90;;;;;;;24.90;51.00;95056.13;5079852;28;20039;-85
2022/07/26 05:09:37;;;;;;;24.58;17.50;;;;;;;22.90;50.70;94756.34;5080155;28;20490;-86
2022/07/26 05:12:03;;;;;;;27.42;17.45;;;;;;;23.34;50.34;94842.47;5079333;28;20221;-85
2022/07/26 05:14:28;;;;;;;26.02;17.48;;;;;;;24.81;50.52;95042.84;5061873;28;20418;-85
2022/07/26 05:16:53;;;;;;;29.60;17.80;;;;;;;24.45;50.70;94956.75;5063025;28;20679;-86
2022/07/26 05:19:19;;;;;;;24.20;16.83;;;;;;;24.33;50.88;94938.00;5082388;28;20050;-85
2022/07/26 05:21:44;;;;;;;27.27;16.88;;;;;;;24.52;50.62;94973.09;5093420;28;20039;-86
2022/07/26 05:24:10;;;;;;;25.48;17.23;;;;;;;24.46;50.83;94944.75;5065141;28;20127;-85
2022/07/26 05:26:35;;;;;;;21.48;17.92;;;;;;;24.38;50.52;94941.19;5091423;28;20613;-86
2022/07/26 05:29:01;;;;;;;26.10;17.08;;;;;;;24.71;50.19;94983.06;5060447;28;20043;-86
2022/07/26 05:31:27;;;;;;;23.63;18.40;;;;;;;24.89;50.63;95046.44;5059111;28;20036;-86
2022/07/26 05:33:53;;;;;;;28.05;17.95;;;;;;;24.70;50.75;95003.19;5077036;28;20521;-85
2022/07/26 05:36:19;;;;;;;24.55;18.10;;;;;;;24.93;50.14;95017.47;5061679;28;20193;-87
2022/07/26 05:38:45;;;;;;;29.00;19.00;;;;;;;24.36;50.40;94924.50;5072239;28;20303;-85
2022/07/26 05:41:10;;;;;;;24.33;18.73;;;;;;;25.15;50.61;95046.41;5078233;28;20046;-86
2022/07/26 05:43:36;;;;;;;33.33;18.50;;;;;;;24.91;50.56;95004.25;5076771;28;20036;-85
2022/07/26 05:46:02;;;;;;;34.92;18.75;;;;;;;24.97;50.26;95005.50;5080169;28;20111;-85
2022/07/26 05:48:27;;;;;;;22.38;17.98;;;;;;;24.21;49.92;94872.03;5078620;28;20062;-85
2022/07/26 05:50:53;;;;;;;26.25;17.73;;;;;;;25.27;49.70;95024.44;5095295;28;20024;-85
2022/07/26 05:53:18;;;;;;;24.08;17.98;;;;;;;24.55;49.98;94908.09;5079705;28;20039;-86
2022/07/26 05:55:44;;;;;;;31.23;18.27;;;;;;;23.73;50.07;94768.06;5069414;28;20032;-85
2022/07/26 05:58:09;;;;;;;29.85;18.08;;;;;;;25.19;50.01;94981.31;5081904;28;20084;-86
2022/07/26 06:00:35;;;;;;;30.80;17.85;;;;;;;25.09;49.61;94998.28;5080803;28;20547;-87
2022/07/26 06:03:20;;;;;;;25.90;17.90;;;;;;;25.14;49.68;94984.38;5079758;28;20181;-86
2022/07/26 06:05:46;;;;;;;29.30;18.35;;;;;;;25.14;49.86;95004.16;5086165;28;20050;-86
2022/07/26 06:08:12;;;;;;;24.52;18.38;;;;;;;25.09;49.78;94982.00;5066462;28;20537;-86
2022/07/26 06:10:37;;;;;;;24.75;17.25;;;;;;;24.93;50.25;94982.97;5062502;28;20035;-85
2022/07/26 06:13:02;;;;;;;27.88;18.35;;;;;;;25.04;49.99;94957.88;5077152;28;20032;-86
2022/07/26 06:15:28;;;;;;;30.00;18.38;;;;;;;25.29;49.76;94978.72;5078739;28;20031;-86
2022/07/26 06:17:53;;;;;;;22.13;18.13;;;;;;;24.67;49.79;94909.00;5069350;28;20067;-86
2022/07/26 06:20:19;;;;;;;20.65;16.42;;;;;;;25.29;49.64;94978.72;5079562;28;20342;-87
2022/07/26 06:22:44;;;;;;;29.25;16.52;;;;;;;25.18;49.41;94972.38;5078952;28;20101;-86
2022/07/26 06:25:09;;;;;;;26.67;17.23;;;;;;;25.30;49.59;94982.22;5079865;28;20036;-87
2022/07/26 06:27:35;;;;;;;24.70;17.27;;;;;;;25.46;49.88;95011.88;5078521;28;20627;-86
2022/07/26 06:30:00;;;;;;;32.10;16.35;;;;;;;24.96;49.73;94925.25;5078903;28;20043;-86
2022/07/26 06:32:26;;;;;;;24.40;16.30;;;;;;;23.91;49.56;94756.69;5079177;28;20040;-86
2022/07/26 06:34:51;;;;;;;18.65;15.02;;;;;;;25.59;49.52;95005.03;5071335;28;20481;-86
2022/07/26 06:37:17;;;;;;;33.42;17.13;;;;;;;25.72;49.35;95011.75;5078050;28;20483;-86
2022/07/26 06:39:42;;;;;;;27.27;16.70;;;;;;;25.45;49.43;94972.28;5088531;28;20394;-86
2022/07/26 06:42:07;;;;;;;24.27;16.20;;;;;;;25.82;49.38;94994.00;5079199;28;20040;-85
2022/07/26 06:44:33;;;;;;;20.55;14.50;;;;;;;25.65;49.74;94976.38;5098630;28;20038;-85
2022/07/26 06:46:58;;;;;;;17.27;13.35;;;;;;;25.96;49.58;95011.19;5078888;28;20052;-85
2022/07/26 06:49:24;;;;;;;20.85;13.90;;;;;;;25.80;49.41;94980.00;5079346;28;20215;-85
2022/07/26 06:51:49;;;;;;;20.70;14.00;;;;;;;25.83;49.84;94995.56;5078939;28;20203;-85
2022/07/26 06:54:15;;;;;;;22.98;13.60;;;;;;;25.84;49.99;94992.47;5080574;28;20039;-85
2022/07/26 06:56:40;;;;;;;23.63;14.93;;;;;;;26.02;50.20;95000.75;5096320;28;20035;-85
2022/07/26 06:59:05;;;;;;;27.10;14.93;;;;;;;25.62;49.35;94931.78;5078504;28;20497;-85
2022/07/26 07:01:31;;;;;;;25.33;14.32;;;;;;;26.10;48.87;94992.28;5115275;28;20079;-85
2022/07/26 07:03:57;;;;;;;22.52;14.27;;;;;;;25.16;48.80;94843.69;5097698;28;20119;-85
2022/07/26 07:06:22;;;;;;;36.00;14.55;;;;;;;26.02;48.56;94962.72;5080953;28;20111;-85
2022/07/26 07:08:48;;;;;;;20.50;13.68;;;;;;;25.95;49.06;94968.09;5079711;28;20047;-85
2022/07/26 07:11:14;;;;;;;21.40;14.75;;;;;;;25.84;49.10;94968.03;5088702;28;20529;-85
2022/07/26 07:13:39;;;;;;;21.17;14.32;;;;;;;25.62;49.09;94899.19;5101530;28;20046;-85
2022/07/26 07:16:05;;;;;;;23.38;13.20;;;;;;;26.24;49.53;94983.50;5101365;28;20418;-85
2022/07/26 07:18:31;;;;;;;16.98;13.15;;;;;;;26.23;48.80;95002.88;5079020;28;20042;-86
2022/07/26 07:20:56;;;;;;;23.33;14.48;;;;;;;25.93;48.81;94937.84;5079477;28;20076;-85
2022/07/26 07:23:22;;;;;;;24.10;14.00;;;;;;;26.03;48.62;94940.59;5094187;28;20118;-85
2022/07/26 07:25:48;;;;;;;22.73;14.00;;;;;;;25.73;48.90;94880.25;5099649;28;20101;-86
2022/07/26 07:28:14;;;;;;;17.45;14.05;;;;;;;26.04;48.62;94925.09;5083729;28;20317;-85
2022/07/26 07:30:39;;;;;;;23.95;14.10;;;;;;;23.47;48.19;94574.00;5079591;28;20044;-85
2022/07/26 07:33:04;;;;;;;18.27;14.15;;;;;;;26.01;48.54;94934.78;5119157;27;20053;-85
2022/07/26 07:35:30;;;;;;;23.85;14.38;;;;;;;26.21;48.01;94923.66;5102817;27;20516;-85
2022/07/26 07:37:56;;;;;;;16.15;14.00;;;;;;;25.87;47.72;94864.03;5091922;28;20066;-85
2022/07/26 07:40:21;;;;;;;22.95;14.32;;;;;;;25.85;46.95;94863.66;5062257;28;20038;-85
2022/07/26 07:42:47;;;;;;;20.73;14.27;;;;;;;26.36;46.64;94956.00;5062847;28;20039;-87
2022/07/26 07:45:12;;;;;;;17.92;14.05;;;;;;;26.26;47.16;94929.53;5078282;28;20108;-87
2022/07/26 07:47:38;;;;;;;16.73;14.30;;;;;;;26.55;47.39;94973.22;5062352;28;20402;-86
2022/07/26 07:50:04;;;;;;;22.73;14.88;;;;;;;26.71;47.21;94962.78;5062534;28;20035;-86
2022/07/26 07:52:30;;;;;;;20.10;14.45;;;;;;;26.70;47.11;94959.28;5063982;28;20032;-86
2022/07/26 07:54:55;;;;;;;21.27;14.68;;;;;;;26.72;47.07;94950.75;5082553;28;20042;-86
2022/07/26 07:57:21;;;;;;;23.98;14.63;;;;;;;26.63;46.46;94923.91;5063332;28;20040;-86
2022/07/26 07:59:46;;;;;;;16.70;13.65;;;;;;;25.03;46.83;94674.97;5082282;28;20046;-86
2022/07/26 08:02:13;;;;;;;22.90;14.63;;;;;;;27.10;46.44;94984.75;5064941;28;20051;-87
2022/07/26 08:04:39;;;;;;;20.15;15.30;;;;;;;26.87;46.37;94941.50;5070219;28;20053;-86
2022/07/26 08:07:04;;;;;;;20.20;14.27;;;;;;;26.34;46.27;94854.22;5086273;28;20101;-86
2022/07/26 08:09:30;;;;;;;19.55;14.57;;;;;;;26.79;47.11;94910.75;5063402;28;20039;-86
2022/07/26 08:11:55;;;;;;;22.83;14.77;;;;;;;26.98;46.85;94953.25;5063538;28;20032;-87
2022/07/26 08:14:21;;;;;;;25.30;14.75;;;;;;;27.07;46.35;94956.38;5062576;28;20185;-86
2022/07/26 08:16:46;;;;;;;21.55;14.73;;;;;;;26.81;46.09;94918.53;5062259;28;20031;-86
2022/07/26 08:19:11;;;;;;;22.90;15.30;;;;;;;27.03;46.10;94947.41;5060961;28;20379;-86
2022/07/26 08:21:37;;;;;;;23.52;15.25;;;;;;;27.30;45.41;94975.13;5080069;28;20040;-86
2022/07/26 08:24:03;;;;;;;20.40;15.43;;;;;;;27.26;45.38;94966.16;5077019;28;20037;-86
2022/07/26 08:26:28;;;;;;;18.60;14.38;;;;;;;26.77;45.47;94869.56;5080288;28;20068;-86
2022/07/26 08:28:54;;;;;;;25.20;15.35;;;;;;;27.00;45.23;94893.78;5080176;28;20035;-86
2022/07/26 08:31:22;;;;;;;22.48;14.75;;;;;;;27.48;45.09;94956.84;5071798;28;20036;-86
2022/07/26 08:33:48;;;;;;;18.25;15.07;;;;;;;27.05;45.02;94865.38;5057003;28;20089;-86
2022/07/26 08:36:16;;;;;;;19.98;14.32;;;;;;;26.98;44.22;94840.88;5079027;28;20044;-86
2022/07/26 08:38:43;;;;;;;23.05;15.05;;;;;;;27.67;44.08;94952.25;5079544;28;20130;-86
2022/07/26 08:41:08;;;;;;;19.20;14.52;;;;;;;27.32;43.96;94882.13;5071183;28;22050;-86
2022/07/26 08:43:34;;;;;;;20.88;14.43;;;;;;;27.75;43.58;94926.56;5060933;28;20040;-86
2022/07/26 08:46:01;;;;;;;24.05;15.55;;;;;;;27.59;43.88;94903.22;5041207;28;20071;-86
2022/07/26 08:48:26;;;;;;;17.25;14.50;;;;;;;27.83;43.18;94931.63;5043462;28;20070;-85
2022/07/26 08:50:54;;;;;;;18.10;14.07;;;;;;;27.72;42.56;94894.66;5063555;28;20854;-87
2022/07/26 08:53:19;;;;;;;17.98;13.82;;;;;;;27.54;42.58;94870.16;5059980;28;20044;-86
2022/07/26 08:55:45;;;;;;;21.25;14.07;;;;;;;27.32;42.48;94854.91;5060926;28;20577;-86
2022/07/26 08:58:11;;;;;;;17.45;13.77;;;;;;;27.59;42.53;94873.25;5088601;28;20466;-86
2022/07/26 09:00:36;;;;;;;22.10;13.98;;;;;;;27.54;42.29;94851.09;5074784;28;20113;-86
2022/07/26 09:03:02;;;;;;;15.80;13.18;;;;;;;28.23;42.26;94938.63;5059510;28;20040;-86
2022/07/26 09:05:35;;;;;;;15.35;13.82;;;;;;;28.10;41.51;94904.72;5061179;28;20051;-86
2022/07/26 09:08:21;;;;;;;19.05;14.88;;;;;;;28.22;40.33;94944.50;5069141;28;20476;-86
2022/07/26 09:10:47;;;;;;;20.20;14.50;;;;;;;27.94;41.08;94886.06;5062940;28;20143;-86
2022/07/26 09:13:12;;;;;;;22.42;14.13;;;;;;;27.84;41.96;94858.84;5055659;28;20582;-86
2022/07/26 09:15:38;;;;;;;22.25;12.85;;;;;;;28.10;41.51;94890.31;5059755;28;20036;-86
2022/07/26 09:18:04;;;;;;;16.92;13.85;;;;;;;28.42;41.30;94927.31;5078898;28;20104;-86
2022/07/26 09:20:31;;;;;;;27.98;14.85;;;;;;;27.77;40.69;94837.06;5060379;28;20465;-86
2022/07/26 09:23:10;;;;;;;25.20;13.43;;;;;;;28.60;40.57;94932.72;5060927;28;20558;-86
2022/07/26 09:25:39;;;;;;;14.82;13.27;;;;;;;28.47;40.84;94901.56;5093993;28;20472;-86
2022/07/26 09:28:20;;;;;;;17.38;13.50;;;;;;;28.70;39.45;94931.09;5064656;28;20126;-86
2022/07/26 09:30:51;;;;;;;16.15;12.85;;;;;;;28.36;37.95;94862.66;5079991;28;20039;-86
2022/07/26 09:33:17;;;;;;;19.40;12.68;;;;;;;28.33;37.52;94860.69;5077606;28;20485;-86
2022/07/26 09:36:00;;;;;;;17.13;12.13;;;;;;;28.41;37.47;94886.78;5060119;28;20127;-86
2022/07/26 09:38:57;;;;;;;19.20;12.57;;;;;;;26.71;36.91;94631.72;5065683;28;20646;-86
2022/07/26 09:41:29;;;;;;;15.02;12.05;;;;;;;28.53;38.29;94866.50;5052130;28;20807;-86
2022/07/26 09:43:57;;;;;;;13.10;11.32;;;;;;;29.01;36.49;94919.31;5058401;28;20433;-86
2022/07/26 09:46:24;;;;;;;16.63;11.98;;;;;;;27.00;36.14;94612.69;5067521;28;20291;-86
2022/07/26 09:48:51;;;;;;;19.05;12.02;;;;;;;27.39;36.13;94659.66;5063956;28;20143;-86
2022/07/26 09:51:34;;;;;;;18.33;10.68;;;;;;;29.21;34.42;94908.69;5067979;28;20043;-86
2022/07/26 09:53:59;;;;;;;22.17;11.25;;;;;;;29.29;33.33;94855.59;5055115;28;20039;-86
2022/07/26 09:56:50;;;;;;;12.60;10.63;;;;;;;30.09;32.37;94866.28;5085548;28;20046;-86
2022/07/26 09:59:18;;;;;;;15.57;10.47;;;;;;;31.09;30.23;94871.41;5063503;28;20417;-86
2022/07/26 10:01:44;;;;;;;16.23;11.32;;;;;;;32.48;29.56;94894.66;5080504;28;20928;-86
2022/07/26 10:04:10;;;;;;;17.50;10.25;;;;;;;33.27;27.53;94892.66;5052920;28;20036;-86
2022/07/26 10:06:36;;;;;;;19.63;10.18;;;;;;;33.77;26.18;94846.78;5073351;28;20043;-85
2022/07/26 10:09:02;;;;;;;18.52;10.43;;;;;;;34.96;25.45;94893.56;5061766;28;20558;-85
2022/07/26 10:11:35;;;;;;;15.15;9.68;;;;;;;34.73;24.52;94803.72;5076747;28;20057;-86
2022/07/26 10:14:33;;;;;;;14.20;9.52;;;;;;;36.01;23.47;94897.03;5064294;28;20199;-86
2022/07/26 10:17:00;;;;;;;14.82;9.75;;;;;;;36.65;23.38;94892.13;5077172;28;20123;-86
2022/07/26 10:19:40;;;;;;;13.38;10.38;;;;;;;36.58;22.95;94875.81;5066102;28;20300;-85
2022/07/26 10:22:25;;;;;;;17.65;9.77;;;;;;;37.52;22.50;94878.25;5069804;28;20085;-86
2022/07/26 10:24:54;;;;;;;12.63;8.57;;;;;;;37.14;22.96;94779.03;5057841;28;20028;-86
2022/07/26 10:27:36;;;;;;;15.80;8.82;;;;;;;37.54;21.88;94765.13;5076649;28;20105;-85
2022/07/26 10:30:21;;;;;;;14.35;9.25;;;;;;;38.66;21.36;94874.38;5076293;28;20911;-85
2022/07/26 10:32:49;;;;;;;14.52;10.05;;;;;;;38.83;20.84;94869.28;5060659;28;20063;-85
2022/07/26 10:35:33;;;;;;;17.70;9.80;;;;;;;39.10;20.17;94874.00;5058156;28;20042;-86
2022/07/26 10:38:23;;;;;;;15.35;10.38;;;;;;;39.02;20.93;94870.03;5056589;28;20063;-86
2022/07/26 10:40:56;;;;;;;;;;;;;;;38.32;20.07;94869.09;5077999;28;20059;-86
2022/07/26 10:43:22;;;;;;;16.63;9.68;;;;;;;38.12;20.28;94828.00;5049258;28;19920;-86
2022/07/26 10:45:48;;;;;;;14.60;9.60;;;;;;;38.31;20.23;94831.53;5074646;28;20044;-86
2022/07/26 10:48:18;;;;;;;13.18;9.85;;;;;;;38.21;20.38;94862.03;5058713;28;20066;-86
2022/07/26 10:50:49;;;;;;;14.57;9.63;;;;;;;38.27;20.25;94848.34;5059306;28;20036;-86
2022/07/26 10:53:26;;;;;;;15.57;9.38;;;;;;;38.47;19.95;94811.84;5058324;28;20131;-86
2022/07/26 10:55:56;;;;;;;14.80;10.13;;;;;;;38.37;20.38;94843.56;5077545;28;20059;-85
2022/07/26 10:58:24;;;;;;;13.00;9.88;;;;;;;36.39;21.59;94786.53;5062537;28;20256;-85
2022/07/26 11:01:02;;;;;;;12.60;9.85;;;;;;;36.53;21.75;94805.34;5061439;28;20236;-85
2022/07/26 11:03:38;;;;;;;10.20;9.10;;;;;;;36.63;20.44;94793.13;5062831;28;20654;-86
2022/07/26 11:06:12;;;;;;;13.90;9.02;;;;;;;36.93;20.50;94744.66;5071841;28;20146;-86
2022/07/26 11:08:38;;;;;;;13.48;9.57;;;;;;;37.09;20.44;94801.69;5062016;28;20517;-86
2022/07/26 11:11:03;;;;;;;12.32;8.95;;;;;;;37.39;19.72;94795.38;5082414;28;20036;-85
2022/07/26 11:13:31;;;;;;;10.73;9.13;;;;;;;37.87;19.37;94784.75;5071645;28;20036;-86
2022/07/26 11:16:07;;;;;;;12.23;7.93;;;;;;;38.20;18.86;94787.72;5061562;28;20040;-85
2022/07/26 11:18:34;;;;;;;11.65;8.18;;;;;;;38.55;18.90;94816.63;5062124;28;20131;-85
2022/07/26 11:21:15;;;;;;;10.50;8.98;;;;;;;38.60;18.47;94818.03;5061023;28;20444;-86